Terminal Aerodrome Forecast
Issued by NWS Grand Forks, ND

Home | Current Version | Previous Version | Text Only | Print | Product List | Glossary On
Versions: 1 2 3 4 5 6 7 8 9 10 11 12 13 14
260
FTUS43 KFGF 040134 AAA
TAFGFK
TAF AMD
KGFK 040134Z 0402/0424 15015KT 5SM -SN BKN015 OVC025
      TEMPO 0402/0403 1SM -SN
     FM040300 16012KT P6SM OVC015
     FM041200 19010KT P6SM OVC008
     FM042000 26010KT P6SM BKN010
     FM042200 27009KT P6SM BKN015=

USA.gov is the U.S. government's official web portal to all federal, state and local government web resources and services.